Buchtel, Ohio
Current Conditions -  °F | °C
As of 8:35 PM on Thursday 27 Nov 2014 (Local Time) from KUNI Reporting Station
Light Snow Light Snow  
Wind Chill: 22°   Ceiling: 2800
Heat Index: 31°   Visibility: 7mi
Dew Point: 26°   Wind: 9mph
Humidity: 85%   Direction: 270°W
Pressure: 30.32"   Gusts: NA
Location:  39.46°N, 82.18°W
Report Text: KUNI 280135Z AUTO 27008KT 7SM -SN SCT013 BKN028 OVC060 M01/M03 A3032 RMK AO2 T10081031
Loading
Personal Weather Stations






























Interactive Weather Map New forecast layout! Learn more

10-Day Weather Forecast

Advertisements
Track Severe Weather on mobile